createdAt,value
2019-05-17T00:00:18.851Z,8.28
2019-05-17T00:02:47.464Z,8.15
2019-05-17T00:05:17.772Z,7.90
2019-05-17T00:07:47.478Z,8.68
2019-05-17T00:10:17.262Z,9.55
2019-05-17T00:12:47.146Z,9.70
2019-05-17T00:15:17.178Z,9.63
2019-05-17T00:17:46.967Z,9.35
2019-05-17T00:20:20.784Z,9.65
2019-05-17T00:22:49.329Z,9.60
2019-05-17T00:25:18.089Z,10.03
2019-05-17T00:27:47.437Z,10.18
2019-05-17T00:30:17.507Z,10.72
2019-05-17T00:32:47.600Z,11.15
2019-05-17T00:35:17.840Z,10.32
2019-05-17T00:37:46.681Z,10.93
2019-05-17T00:40:16.675Z,10.15
2019-05-17T00:42:46.587Z,9.95
2019-05-17T00:45:17.546Z,9.23
2019-05-17T00:47:46.858Z,9.65
2019-05-17T00:50:17.031Z,10.98
2019-05-17T00:52:47.482Z,10.15
2019-05-17T00:55:17.514Z,10.38
2019-05-17T00:57:47.464Z,9.85
2019-05-17T01:00:17.205Z,10.72
2019-05-17T01:02:46.794Z,11.40
2019-05-17T01:05:17.099Z,11.63
2019-05-17T01:07:47.057Z,11.48
2019-05-17T01:10:16.950Z,11.73
2019-05-17T01:12:45.473Z,12.30
2019-05-17T01:15:16.741Z,11.63
2019-05-17T01:17:47.334Z,11.28
2019-05-17T01:20:17.335Z,11.57
2019-05-17T01:22:47.509Z,11.65
2019-05-17T01:25:17.083Z,11.15
2019-05-17T01:27:47.470Z,11.57
2019-05-17T01:30:18.324Z,12.00
2019-05-17T01:32:46.995Z,11.60
2019-05-17T01:35:16.709Z,12.75
2019-05-17T01:37:47.427Z,12.45
2019-05-17T01:40:17.557Z,11.73
2019-05-17T01:42:46.798Z,12.40
2019-05-17T01:45:16.616Z,13.08
2019-05-17T01:47:47.436Z,11.85
2019-05-17T01:50:17.470Z,11.78
2019-05-17T01:52:46.495Z,11.55
2019-05-17T01:55:17.380Z,11.75
2019-05-17T01:57:47.648Z,10.23
2019-05-17T02:00:20.175Z,11.63
2019-05-17T02:02:50.518Z,11.70
2019-05-17T02:05:19.804Z,11.70
2019-05-17T02:07:48.589Z,12.13
2019-05-17T02:10:17.756Z,11.03
2019-05-17T02:12:49.059Z,11.43
2019-05-17T02:15:17.785Z,12.25
2019-05-17T02:17:46.972Z,11.73
2019-05-17T02:20:17.540Z,10.85
2019-05-17T02:22:47.345Z,11.35
2019-05-17T02:25:16.874Z,12.13
2019-05-17T02:27:45.767Z,12.40
2019-05-17T02:30:15.619Z,11.30
2019-05-17T02:32:45.694Z,11.18
2019-05-17T02:35:15.489Z,12.47
2019-05-17T02:37:44.271Z,11.90
2019-05-17T02:40:14.806Z,12.88
2019-05-17T02:42:44.171Z,12.13
2019-05-17T02:45:13.707Z,12.07
2019-05-17T02:47:43.794Z,12.45
2019-05-17T02:50:13.342Z,12.75
2019-05-17T02:52:43.621Z,13.30
2019-05-17T02:55:13.594Z,12.53
2019-05-17T02:57:43.542Z,12.40
2019-05-17T03:00:13.872Z,12.55
2019-05-17T03:02:43.902Z,12.90
2019-05-17T03:05:13.283Z,13.65
2019-05-17T03:07:43.788Z,12.85
2019-05-17T03:10:23.039Z,14.03
2019-05-17T03:12:44.385Z,14.78
2019-05-17T03:15:14.057Z,14.63
2019-05-17T03:17:43.711Z,14.18
2019-05-17T03:20:14.055Z,14.25
2019-05-17T03:22:43.971Z,14.00
2019-05-17T03:25:14.244Z,14.73
2019-05-17T03:27:43.608Z,13.78
2019-05-17T03:30:17.091Z,13.65
2019-05-17T03:32:47.509Z,15.32
2019-05-17T03:35:17.507Z,15.03
2019-05-17T03:37:45.502Z,15.30
2019-05-17T03:40:30.676Z,12.98
2019-05-17T03:42:48.631Z,14.78
2019-05-17T03:45:17.403Z,15.60
2019-05-17T03:47:46.108Z,15.10
2019-05-17T03:50:14.896Z,16.12
2019-05-17T03:52:44.748Z,16.95
2019-05-17T03:55:13.908Z,16.05
2019-05-17T03:57:44.119Z,15.53
2019-05-17T04:00:14.128Z,16.25
2019-05-17T04:02:44.578Z,17.15
2019-05-17T04:05:13.572Z,16.57
2019-05-17T04:07:43.599Z,16.27
2019-05-17T04:10:15.183Z,17.00
2019-05-17T04:12:44.520Z,15.38
2019-05-17T04:15:14.968Z,17.70
2019-05-17T04:17:44.330Z,17.10
2019-05-17T04:20:14.015Z,18.42
2019-05-17T04:22:44.318Z,15.93
2019-05-17T04:25:14.342Z,17.60
2019-05-17T04:27:43.828Z,17.65
2019-05-17T04:30:13.072Z,18.90
2019-05-17T04:32:44.325Z,17.40
2019-05-17T04:35:13.489Z,17.17
2019-05-17T04:37:44.450Z,18.62
2019-05-17T04:40:14.398Z,18.17
2019-05-17T04:42:44.236Z,17.35
2019-05-17T04:45:13.758Z,19.20
2019-05-17T04:47:44.311Z,17.57
2019-05-17T04:50:14.060Z,18.23
2019-05-17T04:52:43.615Z,18.25
2019-05-17T04:55:13.844Z,17.40
2019-05-17T04:57:43.707Z,17.95
2019-05-17T05:00:13.829Z,17.60
2019-05-17T05:02:43.930Z,17.23
2019-05-17T05:05:15.329Z,16.23
2019-05-17T05:07:44.134Z,17.17
2019-05-17T05:10:13.999Z,17.77
2019-05-17T05:12:44.138Z,16.60
2019-05-17T05:15:13.933Z,16.40
2019-05-17T05:17:43.104Z,15.43
2019-05-17T05:20:13.312Z,15.43
2019-05-17T05:22:43.119Z,14.47
2019-05-17T05:25:13.168Z,14.40
2019-05-17T05:27:42.627Z,14.50
2019-05-17T05:30:12.740Z,15.28
2019-05-17T05:32:42.777Z,15.35
2019-05-17T05:35:12.728Z,15.48
2019-05-17T05:37:42.236Z,14.78
2019-05-17T05:40:12.671Z,15.55
2019-05-17T05:42:42.615Z,14.47
2019-05-17T05:45:12.305Z,14.18
2019-05-17T05:47:42.114Z,13.32
2019-05-17T05:50:12.683Z,14.80
2019-05-17T05:52:42.583Z,12.78
2019-05-17T05:55:12.468Z,13.62
2019-05-17T05:57:42.161Z,13.05
2019-05-17T06:00:13.125Z,11.33
2019-05-17T06:02:42.211Z,12.13
2019-05-17T06:05:14.841Z,11.28
2019-05-17T06:07:41.926Z,12.85
2019-05-17T06:10:12.975Z,13.08
2019-05-17T06:12:43.514Z,11.88
2019-05-17T06:15:12.968Z,11.88
2019-05-17T06:17:42.893Z,12.20
2019-05-17T06:20:12.647Z,12.53
2019-05-17T06:22:43.063Z,11.90
2019-05-17T06:25:15.212Z,12.20
2019-05-17T06:27:43.004Z,12.35
2019-05-17T06:30:12.830Z,12.15
2019-05-17T06:32:43.631Z,10.55
2019-05-17T06:35:13.646Z,11.97
2019-05-17T06:37:42.718Z,12.15
2019-05-17T06:40:13.007Z,11.65
2019-05-17T06:42:45.288Z,12.20
2019-05-17T06:45:14.118Z,12.53
2019-05-17T06:47:43.011Z,13.20
2019-05-17T06:50:14.340Z,13.05
2019-05-17T06:52:43.968Z,11.78
2019-05-17T06:55:13.257Z,11.73
2019-05-17T06:57:43.255Z,11.22
2019-05-17T07:00:20.805Z,10.23
2019-05-17T07:02:45.187Z,10.75
2019-05-17T07:05:15.546Z,10.23
2019-05-17T07:07:44.234Z,10.95
2019-05-17T07:10:13.639Z,11.22
2019-05-17T07:12:55.095Z,10.28
2019-05-17T07:15:13.591Z,10.38
2019-05-17T07:17:42.272Z,9.90
2019-05-17T07:20:11.374Z,10.15
2019-05-17T07:22:41.007Z,10.78
2019-05-17T07:25:10.973Z,10.50
2019-05-17T07:27:45.453Z,10.23
2019-05-17T07:30:11.081Z,9.85
2019-05-17T07:32:40.563Z,10.28
2019-05-17T07:35:10.746Z,10.30
2019-05-17T07:37:40.159Z,9.23
2019-05-17T07:40:10.836Z,9.83
2019-05-17T07:42:42.062Z,10.08
2019-05-17T07:45:11.193Z,9.60
2019-05-17T07:47:40.697Z,9.28
2019-05-17T07:50:11.425Z,9.73
2019-05-17T07:52:40.410Z,9.85
2019-05-17T07:55:10.784Z,9.70
2019-05-17T07:57:40.976Z,10.40
2019-05-17T08:00:10.943Z,10.30
2019-05-17T08:02:40.367Z,10.08
2019-05-17T08:05:10.620Z,9.13
2019-05-17T08:07:40.539Z,10.13
2019-05-17T08:10:11.274Z,9.13
2019-05-17T08:12:40.927Z,10.10
2019-05-17T08:15:10.954Z,8.53
2019-05-17T08:17:40.081Z,9.28
2019-05-17T08:20:10.538Z,8.35
2019-05-17T08:22:40.110Z,10.50
2019-05-17T08:25:10.896Z,10.30
2019-05-17T08:27:40.605Z,11.33
2019-05-17T08:30:10.844Z,11.12
2019-05-17T08:32:40.295Z,11.08
2019-05-17T08:35:11.176Z,11.03
2019-05-17T08:37:42.362Z,11.55
2019-05-17T08:40:14.874Z,13.40
2019-05-17T08:42:41.783Z,11.90
2019-05-17T08:45:10.967Z,12.03
2019-05-17T08:47:39.995Z,12.23
2019-05-17T08:50:11.211Z,12.40
2019-05-17T08:52:40.318Z,11.30
2019-05-17T08:55:09.962Z,11.60
2019-05-17T08:57:40.137Z,11.43
2019-05-17T09:00:10.567Z,12.50
2019-05-17T09:02:40.830Z,11.48
2019-05-17T09:05:10.295Z,12.23
2019-05-17T09:07:40.170Z,11.68
2019-05-17T09:10:10.122Z,11.08
2019-05-17T09:12:41.040Z,12.55
2019-05-17T09:15:10.248Z,11.93
2019-05-17T09:17:39.592Z,11.43
2019-05-17T09:20:10.883Z,10.35
2019-05-17T09:22:39.971Z,11.12
2019-05-17T09:25:13.506Z,9.20
2019-05-17T09:27:39.928Z,10.38
2019-05-17T09:30:09.658Z,10.00
2019-05-17T09:32:40.531Z,10.03
2019-05-17T09:35:10.338Z,488.57
2019-05-17T09:37:41.400Z,325.13
2019-05-17T09:40:10.839Z,178.60
2019-05-17T09:42:41.124Z,204.50
2019-05-17T09:45:10.837Z,586.12
2019-05-17T09:47:39.966Z,166.22
2019-05-17T09:50:09.884Z,120.97
2019-05-17T09:52:40.512Z,34.83
2019-05-17T09:55:10.104Z,20.05
2019-05-17T09:57:40.912Z,9.98
2019-05-17T10:00:10.737Z,9.23
2019-05-17T10:02:40.419Z,9.50
2019-05-17T10:05:10.608Z,9.03
2019-05-17T10:07:40.507Z,8.20
2019-05-17T10:10:10.402Z,9.10
2019-05-17T10:12:40.282Z,8.38
2019-05-17T10:15:10.198Z,8.58
2019-05-17T10:17:38.958Z,8.45
2019-05-17T10:20:10.670Z,8.55
2019-05-17T10:22:40.242Z,9.33
2019-05-17T10:25:11.029Z,8.23
2019-05-17T10:27:40.765Z,8.28
2019-05-17T10:30:10.675Z,7.92
2019-05-17T10:32:40.864Z,7.15
2019-05-17T10:35:09.999Z,7.87
2019-05-17T10:37:40.642Z,7.70
2019-05-17T10:40:10.939Z,7.78
2019-05-17T10:42:40.057Z,7.67
2019-05-17T10:45:10.906Z,7.25
2019-05-17T10:47:40.113Z,8.15
2019-05-17T10:50:10.916Z,8.65
2019-05-17T10:52:40.881Z,7.55
2019-05-17T10:55:10.803Z,8.65
2019-05-17T10:57:39.616Z,7.65
2019-05-17T11:00:10.088Z,7.67
2019-05-17T11:02:39.078Z,7.67
2019-05-17T11:05:10.372Z,7.97
2019-05-17T11:07:38.718Z,8.20
2019-05-17T11:10:11.148Z,7.92
2019-05-17T11:12:38.615Z,8.05
2019-05-17T11:15:11.398Z,8.48
2019-05-17T11:17:38.368Z,7.80
2019-05-17T11:20:09.078Z,9.10
2019-05-17T11:22:37.878Z,8.35
2019-05-17T11:25:07.886Z,8.53
2019-05-17T11:27:36.650Z,8.18
2019-05-17T11:30:07.183Z,8.33
2019-05-17T11:32:35.936Z,7.70
2019-05-17T11:35:05.578Z,7.22
2019-05-17T11:37:36.314Z,5.70
2019-05-17T11:40:08.275Z,6.42
2019-05-17T11:42:37.122Z,7.00
2019-05-17T11:45:06.229Z,6.58
2019-05-17T11:47:34.894Z,7.30
2019-05-17T11:50:04.641Z,7.28
2019-05-17T11:52:33.370Z,7.03
2019-05-17T11:55:02.193Z,7.50
2019-05-17T11:57:30.888Z,7.28
2019-05-17T11:59:59.550Z,7.33
2019-05-17T12:02:28.238Z,6.97
2019-05-17T12:04:56.989Z,6.95
2019-05-17T12:07:25.637Z,6.62
2019-05-17T12:09:54.325Z,6.67
2019-05-17T12:12:23.103Z,7.37
2019-05-17T12:14:51.763Z,7.70
2019-05-17T12:17:20.535Z,8.15
2019-05-17T12:19:49.306Z,8.70
2019-05-17T12:22:17.989Z,8.38
2019-05-17T12:24:46.743Z,8.05
2019-05-17T12:27:15.451Z,7.95
2019-05-17T12:29:44.194Z,8.95
2019-05-17T12:32:16.905Z,9.10
2019-05-17T12:34:43.476Z,8.85
2019-05-17T12:37:12.148Z,9.68
2019-05-17T12:39:40.825Z,8.90
2019-05-17T12:42:09.605Z,8.50
2019-05-17T12:44:38.344Z,9.03
2019-05-17T12:47:07.041Z,9.30
2019-05-17T12:49:35.698Z,8.83
2019-05-17T12:52:04.464Z,9.05
2019-05-17T12:54:33.193Z,9.25
2019-05-17T12:57:04.561Z,8.35
2019-05-17T12:59:32.346Z,8.63
2019-05-17T13:02:01.049Z,8.40
2019-05-17T13:04:29.790Z,8.50
2019-05-17T13:06:58.527Z,9.95
2019-05-17T13:09:27.238Z,10.90
2019-05-17T13:11:55.901Z,9.53
2019-05-17T13:14:24.652Z,8.58
2019-05-17T13:16:53.422Z,8.20
2019-05-17T13:19:25.120Z,8.00
2019-05-17T13:21:52.512Z,7.97
2019-05-17T13:24:21.237Z,8.15
2019-05-17T13:26:49.903Z,9.20
2019-05-17T13:29:18.674Z,8.88
2019-05-17T13:31:47.482Z,8.80
2019-05-17T13:34:16.234Z,8.53
2019-05-17T13:36:44.895Z,8.85
2019-05-17T13:39:13.614Z,8.28
2019-05-17T13:41:42.473Z,8.70
2019-05-17T13:44:11.147Z,9.60
2019-05-17T13:46:39.966Z,10.05
2019-05-17T13:49:08.700Z,9.38
2019-05-17T13:51:37.463Z,9.40
2019-05-17T13:54:06.198Z,8.83
2019-05-17T13:56:35.028Z,8.10
2019-05-17T13:59:05.164Z,9.00
2019-05-17T14:01:34.066Z,9.28
2019-05-17T14:04:02.800Z,11.20
2019-05-17T14:06:31.542Z,11.22
2019-05-17T14:09:00.293Z,9.80
2019-05-17T14:11:29.004Z,10.20
2019-05-17T14:13:57.872Z,10.08
2019-05-17T14:16:26.666Z,9.60
2019-05-17T14:18:55.408Z,9.30
2019-05-17T14:21:24.068Z,11.38
2019-05-17T14:23:52.791Z,10.63
2019-05-17T14:26:21.468Z,10.53
2019-05-17T14:28:50.129Z,10.35
2019-05-17T14:31:19.023Z,10.80
2019-05-17T14:33:47.689Z,11.53
2019-05-17T14:36:16.347Z,11.18
2019-05-17T14:38:45.139Z,11.40
2019-05-17T14:41:14.179Z,10.78
2019-05-17T14:43:42.953Z,11.12
2019-05-17T14:46:13.710Z,11.25
2019-05-17T14:48:42.440Z,12.18
2019-05-17T14:51:11.168Z,11.20
2019-05-17T14:53:39.839Z,11.80
2019-05-17T14:56:08.573Z,11.33
2019-05-17T14:58:37.303Z,10.43
2019-05-17T15:01:06.012Z,10.72
2019-05-17T15:03:34.775Z,11.75
2019-05-17T15:06:03.473Z,10.55
2019-05-17T15:08:32.173Z,11.68
2019-05-17T15:11:00.864Z,10.80
2019-05-17T15:13:29.537Z,10.63
2019-05-17T15:15:58.243Z,10.85
2019-05-17T15:18:27.004Z,10.63
2019-05-17T15:20:55.695Z,11.03
2019-05-17T15:23:24.481Z,10.55
2019-05-17T15:25:53.157Z,11.53
2019-05-17T15:28:21.907Z,10.95
2019-05-17T15:30:50.601Z,10.60
2019-05-17T15:33:19.346Z,10.45
2019-05-17T15:35:48.086Z,10.78
2019-05-17T15:38:16.784Z,9.53
2019-05-17T15:40:45.441Z,10.80
2019-05-17T15:43:14.133Z,9.75
2019-05-17T15:45:42.972Z,8.78
2019-05-17T15:48:11.799Z,11.65
2019-05-17T15:50:40.630Z,10.68
2019-05-17T15:53:09.381Z,10.45
2019-05-17T15:55:38.152Z,9.88
2019-05-17T15:58:06.886Z,10.43
2019-05-17T16:00:35.654Z,10.78
2019-05-17T16:03:04.329Z,10.30
2019-05-17T16:05:33.020Z,10.68
2019-05-17T16:08:01.722Z,11.05
2019-05-17T16:10:30.461Z,11.22
2019-05-17T16:13:02.799Z,10.63
2019-05-17T16:15:29.764Z,10.00
2019-05-17T16:17:58.465Z,10.85
2019-05-17T16:20:27.225Z,11.40
2019-05-17T16:22:55.969Z,10.78
2019-05-17T16:25:24.794Z,11.33
2019-05-17T16:27:53.527Z,10.05
2019-05-17T16:30:22.341Z,10.43
2019-05-17T16:32:51.018Z,10.20
2019-05-17T16:35:19.831Z,11.50
2019-05-17T16:37:48.554Z,10.85
2019-05-17T16:40:17.347Z,10.35
2019-05-17T16:42:46.082Z,9.48
2019-05-17T16:45:17.883Z,9.58
2019-05-17T16:47:46.635Z,10.20
2019-05-17T16:50:17.069Z,10.35
2019-05-17T16:52:45.732Z,11.15
2019-05-17T16:55:15.162Z,10.20
2019-05-17T16:57:43.925Z,10.95
2019-05-17T17:00:30.320Z,10.95
2019-05-17T17:03:00.540Z,10.65
2019-05-17T17:05:29.344Z,10.40
2019-05-17T17:07:58.099Z,10.53
2019-05-17T17:10:26.817Z,10.43
2019-05-17T17:12:55.497Z,10.58
2019-05-17T17:15:24.188Z,10.75
2019-05-17T17:17:52.972Z,10.48
2019-05-17T17:20:21.877Z,10.08
2019-05-17T17:22:50.557Z,10.25
2019-05-17T17:25:19.463Z,9.98
2019-05-17T17:27:48.165Z,9.20
2019-05-17T17:30:17.546Z,9.15
2019-05-17T17:32:46.275Z,9.18
2019-05-17T17:35:16.067Z,9.20
2019-05-17T17:37:44.821Z,9.70
2019-05-17T17:40:15.293Z,12.00
2019-05-17T17:42:44.046Z,11.08
2019-05-17T17:45:17.758Z,11.85
2019-05-17T17:47:46.559Z,11.55
2019-05-17T17:50:15.978Z,12.05
2019-05-17T17:52:46.948Z,11.55
2019-05-17T17:55:15.775Z,11.45
2019-05-17T17:57:44.477Z,11.73
2019-05-17T18:00:14.252Z,12.00
2019-05-17T18:02:42.917Z,11.20
2019-05-17T18:05:12.163Z,12.23
2019-05-17T18:07:40.838Z,11.43
2019-05-17T18:10:10.352Z,11.90
2019-05-17T18:12:39.008Z,11.97
2019-05-17T18:15:09.959Z,12.33
2019-05-17T18:17:39.621Z,11.88
2019-05-17T18:20:08.688Z,12.40
2019-05-17T18:22:37.429Z,12.13
2019-05-17T18:25:06.930Z,11.90
2019-05-17T18:27:35.665Z,11.68
2019-05-17T18:30:06.958Z,12.30
2019-05-17T18:32:35.667Z,13.20
2019-05-17T18:35:05.984Z,11.93
2019-05-17T18:37:34.752Z,12.63
2019-05-17T18:40:03.852Z,12.00
2019-05-17T18:42:32.545Z,12.25
2019-05-17T18:45:01.282Z,12.45
2019-05-17T18:47:30.017Z,12.58
2019-05-17T18:49:58.697Z,13.60
2019-05-17T18:52:27.443Z,13.10
2019-05-17T18:54:56.163Z,12.78
2019-05-17T18:57:24.903Z,12.90
2019-05-17T18:59:53.655Z,12.10
2019-05-17T19:02:22.372Z,12.30
2019-05-17T19:04:51.131Z,12.53
2019-05-17T19:07:19.901Z,12.63
2019-05-17T19:09:48.620Z,14.18
2019-05-17T19:12:17.293Z,12.98
2019-05-17T19:14:46.052Z,12.60
2019-05-17T19:17:14.802Z,12.75
2019-05-17T19:19:43.540Z,13.30
2019-05-17T19:22:12.289Z,13.48
2019-05-17T19:24:41.065Z,14.40
2019-05-17T19:27:09.843Z,13.62
2019-05-17T19:29:38.590Z,14.80
2019-05-17T19:32:07.298Z,13.78
2019-05-17T19:34:36.061Z,12.88
2019-05-17T19:37:04.793Z,14.07
2019-05-17T19:39:33.517Z,13.75
2019-05-17T19:42:02.216Z,13.75
2019-05-17T19:44:30.961Z,13.90
2019-05-17T19:46:59.741Z,12.85
2019-05-17T19:49:28.491Z,13.35
2019-05-17T19:51:57.266Z,13.28
2019-05-17T19:54:25.958Z,13.65
2019-05-17T19:56:54.854Z,14.13
2019-05-17T19:59:23.530Z,13.28
2019-05-17T20:01:52.252Z,13.25
2019-05-17T20:04:21.010Z,13.62
2019-05-17T20:06:49.692Z,14.33
2019-05-17T20:09:18.368Z,13.62
2019-05-17T20:11:47.073Z,14.40
2019-05-17T20:14:15.816Z,13.22
2019-05-17T20:16:44.523Z,14.53
2019-05-17T20:19:13.249Z,13.68
2019-05-17T20:21:41.973Z,14.98
2019-05-17T20:24:13.350Z,15.90
2019-05-17T20:26:42.042Z,14.98
2019-05-17T20:29:11.215Z,14.65
2019-05-17T20:31:39.960Z,14.78
2019-05-17T20:34:08.762Z,16.25
2019-05-17T20:36:37.420Z,16.17
2019-05-17T20:39:06.298Z,17.25
2019-05-17T20:41:34.965Z,17.80
2019-05-17T20:44:03.823Z,18.70
2019-05-17T20:46:32.638Z,16.17
2019-05-17T20:49:01.564Z,18.25
2019-05-17T20:51:30.339Z,17.42
2019-05-17T20:54:05.579Z,19.32
2019-05-17T20:56:34.386Z,18.37
2019-05-17T20:59:03.160Z,21.15
2019-05-17T21:01:31.983Z,21.55
2019-05-17T21:04:00.768Z,21.90
2019-05-17T21:06:29.437Z,22.05
2019-05-17T21:08:58.147Z,23.62
2019-05-17T21:11:26.851Z,23.38
2019-05-17T21:13:55.630Z,24.05
2019-05-17T21:16:24.442Z,24.02
2019-05-17T21:18:53.151Z,24.47
2019-05-17T21:21:21.828Z,25.92
2019-05-17T21:23:50.560Z,25.95
2019-05-17T21:26:19.260Z,26.68
2019-05-17T21:28:47.968Z,27.25
2019-05-17T21:31:16.713Z,27.40
2019-05-17T21:33:45.430Z,29.80
2019-05-17T21:36:14.176Z,29.40
2019-05-17T21:38:42.900Z,29.98
2019-05-17T21:41:11.578Z,28.07
2019-05-17T21:43:40.266Z,27.67
2019-05-17T21:46:09.072Z,29.23
2019-05-17T21:48:37.749Z,30.00
2019-05-17T21:51:06.473Z,31.90
2019-05-17T21:53:35.157Z,30.75
2019-05-17T21:56:03.831Z,29.60
2019-05-17T21:58:32.729Z,31.35
2019-05-17T22:01:04.492Z,34.10
2019-05-17T22:03:33.247Z,30.68
2019-05-17T22:06:02.044Z,29.50
2019-05-17T22:08:30.809Z,30.37
2019-05-17T22:10:59.496Z,32.13
2019-05-17T22:13:28.290Z,33.95
2019-05-17T22:15:57.033Z,32.15
2019-05-17T22:18:25.702Z,31.12
2019-05-17T22:20:54.395Z,32.75
2019-05-17T22:23:23.116Z,33.98
2019-05-17T22:25:51.797Z,30.97
2019-05-17T22:28:20.472Z,33.15
2019-05-17T22:30:49.186Z,32.85
2019-05-17T22:33:17.873Z,31.50
2019-05-17T22:35:46.608Z,31.52
2019-05-17T22:38:15.336Z,32.88
2019-05-17T22:40:44.115Z,33.33
2019-05-17T22:43:12.803Z,31.45
2019-05-17T22:45:41.822Z,30.95
2019-05-17T22:48:10.623Z,32.17
2019-05-17T22:50:39.402Z,30.35
2019-05-17T22:53:08.120Z,33.90
2019-05-17T22:55:36.805Z,32.67
2019-05-17T22:58:05.487Z,31.75
2019-05-17T23:00:34.553Z,30.15
2019-05-17T23:03:03.259Z,30.25
2019-05-17T23:05:31.945Z,31.07
2019-05-17T23:08:00.667Z,33.95
2019-05-17T23:10:29.375Z,30.60
2019-05-17T23:12:58.119Z,33.13
2019-05-17T23:15:28.479Z,32.67
2019-05-17T23:17:57.243Z,29.80
2019-05-17T23:20:25.903Z,30.57
2019-05-17T23:22:54.837Z,30.85
2019-05-17T23:25:23.609Z,30.15
2019-05-17T23:27:52.421Z,31.57
2019-05-17T23:30:21.257Z,33.00
2019-05-17T23:32:50.012Z,30.32
2019-05-17T23:35:18.806Z,32.25
2019-05-17T23:37:47.626Z,34.78
2019-05-17T23:40:16.499Z,32.85
2019-05-17T23:42:45.244Z,33.33
2019-05-17T23:45:14.056Z,31.07
2019-05-17T23:47:42.736Z,28.90
2019-05-17T23:50:11.855Z,30.72
2019-05-17T23:52:40.617Z,30.88
2019-05-17T23:55:10.281Z,31.05
2019-05-17T23:57:39.092Z,31.68
